sensor_id;sensor_type;location;lat;lon;timestamp;P1;durP1;ratioP1;P2;durP2;ratioP2
1885;SDS011;943;51.568;6.998;2023-06-24T00:03:14;11.20;;;8.80;;
1885;SDS011;943;51.568;6.998;2023-06-24T00:07:44;10.30;;;9.20;;
1885;SDS011;943;51.568;6.998;2023-06-24T00:12:13;10.67;;;9.03;;
1885;SDS011;943;51.568;6.998;2023-06-24T00:16:45;11.27;;;8.63;;
1885;SDS011;943;51.568;6.998;2023-06-24T00:21:16;10.57;;;9.27;;
1885;SDS011;943;51.568;6.998;2023-06-24T00:25:48;15.83;;;9.13;;
1885;SDS011;943;51.568;6.998;2023-06-24T00:30:18;11.57;;;8.97;;
1885;SDS011;943;51.568;6.998;2023-06-24T00:34:49;13.57;;;9.77;;
1885;SDS011;943;51.568;6.998;2023-06-24T00:39:21;12.67;;;9.43;;
1885;SDS011;943;51.568;6.998;2023-06-24T00:43:53;14.87;;;10.40;;
1885;SDS011;943;51.568;6.998;2023-06-24T00:48:23;11.37;;;9.63;;
1885;SDS011;943;51.568;6.998;2023-06-24T00:52:53;12.13;;;10.63;;
1885;SDS011;943;51.568;6.998;2023-06-24T00:57:23;14.50;;;12.30;;
1885;SDS011;943;51.568;6.998;2023-06-24T01:01:55;12.87;;;9.63;;
1885;SDS011;943;51.568;6.998;2023-06-24T01:06:28;14.27;;;10.17;;
1885;SDS011;943;51.568;6.998;2023-06-24T01:10:59;16.10;;;10.90;;
1885;SDS011;943;51.568;6.998;2023-06-24T01:15:29;15.00;;;9.90;;
1885;SDS011;943;51.568;6.998;2023-06-24T01:30:43;14.63;;;11.30;;
1885;SDS011;943;51.568;6.998;2023-06-24T01:35:53;13.50;;;11.53;;
1885;SDS011;943;51.568;6.998;2023-06-24T01:45:02;14.00;;;10.93;;
1885;SDS011;943;51.568;6.998;2023-06-24T01:49:39;13.43;;;10.73;;
1885;SDS011;943;51.568;6.998;2023-06-24T01:54:15;12.30;;;11.00;;
1885;SDS011;943;51.568;6.998;2023-06-24T01:58:46;13.70;;;10.80;;
1885;SDS011;943;51.568;6.998;2023-06-24T02:03:21;12.00;;;10.50;;
1885;SDS011;943;51.568;6.998;2023-06-24T02:07:52;14.30;;;12.13;;
1885;SDS011;943;51.568;6.998;2023-06-24T02:12:27;15.83;;;13.27;;
1885;SDS011;943;51.568;6.998;2023-06-24T02:17:00;18.87;;;13.53;;
1885;SDS011;943;51.568;6.998;2023-06-24T02:21:34;15.97;;;14.07;;
1885;SDS011;943;51.568;6.998;2023-06-24T02:26:05;18.03;;;12.87;;
1885;SDS011;943;51.568;6.998;2023-06-24T02:30:38;17.03;;;13.50;;
1885;SDS011;943;51.568;6.998;2023-06-24T02:35:08;18.83;;;14.17;;
1885;SDS011;943;51.568;6.998;2023-06-24T02:39:39;18.23;;;14.07;;
1885;SDS011;943;51.568;6.998;2023-06-24T02:44:11;16.97;;;14.13;;
1885;SDS011;943;51.568;6.998;2023-06-24T02:48:42;16.80;;;14.30;;
1885;SDS011;943;51.568;6.998;2023-06-24T02:53:15;15.23;;;13.07;;
1885;SDS011;943;51.568;6.998;2023-06-24T02:57:48;18.27;;;14.80;;
1885;SDS011;943;51.568;6.998;2023-06-24T03:02:20;21.23;;;15.80;;
1885;SDS011;943;51.568;6.998;2023-06-24T03:06:51;19.50;;;15.53;;
1885;SDS011;943;51.568;6.998;2023-06-24T03:11:22;15.77;;;13.43;;
1885;SDS011;943;51.568;6.998;2023-06-24T03:16:00;21.30;;;15.37;;
1885;SDS011;943;51.568;6.998;2023-06-24T03:20:31;15.60;;;13.87;;
1885;SDS011;943;51.568;6.998;2023-06-24T03:25:08;16.47;;;14.30;;
1885;SDS011;943;51.568;6.998;2023-06-24T03:29:43;15.07;;;12.97;;
1885;SDS011;943;51.568;6.998;2023-06-24T03:34:17;15.43;;;12.90;;
1885;SDS011;943;51.568;6.998;2023-06-24T03:38:51;16.17;;;12.50;;
1885;SDS011;943;51.568;6.998;2023-06-24T03:43:22;15.67;;;12.10;;
1885;SDS011;943;51.568;6.998;2023-06-24T03:47:53;15.53;;;12.33;;
1885;SDS011;943;51.568;6.998;2023-06-24T03:52:22;15.23;;;12.03;;
1885;SDS011;943;51.568;6.998;2023-06-24T03:56:53;15.27;;;12.30;;
1885;SDS011;943;51.568;6.998;2023-06-24T04:01:25;15.50;;;13.07;;
1885;SDS011;943;51.568;6.998;2023-06-24T04:05:58;15.47;;;11.77;;
1885;SDS011;943;51.568;6.998;2023-06-24T04:10:30;13.50;;;10.60;;
1885;SDS011;943;51.568;6.998;2023-06-24T04:15:01;12.20;;;10.90;;
1885;SDS011;943;51.568;6.998;2023-06-24T04:19:33;14.63;;;11.13;;
1885;SDS011;943;51.568;6.998;2023-06-24T04:24:05;11.93;;;10.60;;
1885;SDS011;943;51.568;6.998;2023-06-24T04:28:37;15.20;;;10.97;;
1885;SDS011;943;51.568;6.998;2023-06-24T04:33:08;12.93;;;11.63;;
1885;SDS011;943;51.568;6.998;2023-06-24T04:37:39;12.63;;;11.33;;
1885;SDS011;943;51.568;6.998;2023-06-24T04:42:09;13.40;;;11.20;;
1885;SDS011;943;51.568;6.998;2023-06-24T04:46:39;12.77;;;11.00;;
1885;SDS011;943;51.568;6.998;2023-06-24T04:51:10;16.00;;;11.43;;
1885;SDS011;943;51.568;6.998;2023-06-24T04:55:40;11.73;;;9.93;;
1885;SDS011;943;51.568;6.998;2023-06-24T05:00:10;14.87;;;11.33;;
1885;SDS011;943;51.568;6.998;2023-06-24T05:04:41;13.13;;;11.73;;
1885;SDS011;943;51.568;6.998;2023-06-24T05:09:11;13.53;;;10.07;;
1885;SDS011;943;51.568;6.998;2023-06-24T05:13:41;13.77;;;11.40;;
1885;SDS011;943;51.568;6.998;2023-06-24T05:18:12;12.10;;;10.90;;
1885;SDS011;943;51.568;6.998;2023-06-24T05:22:44;11.33;;;10.13;;
1885;SDS011;943;51.568;6.998;2023-06-24T05:27:14;16.60;;;11.90;;
1885;SDS011;943;51.568;6.998;2023-06-24T05:31:46;10.93;;;8.77;;
1885;SDS011;943;51.568;6.998;2023-06-24T05:36:20;11.03;;;9.63;;
1885;SDS011;943;51.568;6.998;2023-06-24T05:40:55;13.83;;;9.83;;
1885;SDS011;943;51.568;6.998;2023-06-24T05:45:24;11.10;;;9.37;;
1885;SDS011;943;51.568;6.998;2023-06-24T05:49:54;11.77;;;10.53;;
1885;SDS011;943;51.568;6.998;2023-06-24T05:54:24;14.13;;;9.97;;
1885;SDS011;943;51.568;6.998;2023-06-24T05:58:54;14.03;;;10.30;;
1885;SDS011;943;51.568;6.998;2023-06-24T06:03:27;13.57;;;11.30;;
1885;SDS011;943;51.568;6.998;2023-06-24T06:07:59;15.37;;;12.20;;
1885;SDS011;943;51.568;6.998;2023-06-24T06:12:29;14.00;;;11.13;;
1885;SDS011;943;51.568;6.998;2023-06-24T06:16:59;13.47;;;11.77;;
1885;SDS011;943;51.568;6.998;2023-06-24T06:21:29;17.60;;;11.17;;
1885;SDS011;943;51.568;6.998;2023-06-24T06:25:59;13.73;;;12.10;;
1885;SDS011;943;51.568;6.998;2023-06-24T06:30:29;14.13;;;10.70;;
1885;SDS011;943;51.568;6.998;2023-06-24T06:34:59;15.43;;;11.10;;
1885;SDS011;943;51.568;6.998;2023-06-24T06:39:29;12.43;;;11.20;;
1885;SDS011;943;51.568;6.998;2023-06-24T06:43:59;11.90;;;10.63;;
1885;SDS011;943;51.568;6.998;2023-06-24T06:48:29;14.07;;;10.50;;
1885;SDS011;943;51.568;6.998;2023-06-24T06:52:59;13.57;;;12.13;;
1885;SDS011;943;51.568;6.998;2023-06-24T06:57:28;10.80;;;9.70;;
1885;SDS011;943;51.568;6.998;2023-06-24T07:01:58;13.87;;;12.00;;
1885;SDS011;943;51.568;6.998;2023-06-24T07:06:29;12.87;;;10.97;;
1885;SDS011;943;51.568;6.998;2023-06-24T07:10:59;11.73;;;10.33;;
1885;SDS011;943;51.568;6.998;2023-06-24T07:15:28;13.77;;;12.07;;
1885;SDS011;943;51.568;6.998;2023-06-24T07:19:58;13.03;;;11.60;;
1885;SDS011;943;51.568;6.998;2023-06-24T07:24:30;14.57;;;11.63;;
1885;SDS011;943;51.568;6.998;2023-06-24T07:28:59;12.00;;;10.90;;
1885;SDS011;943;51.568;6.998;2023-06-24T07:33:30;17.00;;;12.30;;
1885;SDS011;943;51.568;6.998;2023-06-24T07:38:02;13.60;;;11.63;;
1885;SDS011;943;51.568;6.998;2023-06-24T07:42:32;15.30;;;13.77;;
1885;SDS011;943;51.568;6.998;2023-06-24T07:47:03;15.03;;;13.50;;
1885;SDS011;943;51.568;6.998;2023-06-24T07:51:34;13.30;;;11.93;;
1885;SDS011;943;51.568;6.998;2023-06-24T07:56:05;14.63;;;13.13;;
1885;SDS011;943;51.568;6.998;2023-06-24T08:00:36;16.80;;;13.70;;
1885;SDS011;943;51.568;6.998;2023-06-24T08:05:07;16.58;;;14.88;;
1885;SDS011;943;51.568;6.998;2023-06-24T08:09:37;19.80;;;15.93;;
1885;SDS011;943;51.568;6.998;2023-06-24T08:14:08;17.43;;;15.03;;
1885;SDS011;943;51.568;6.998;2023-06-24T08:18:38;14.57;;;13.02;;
1885;SDS011;943;51.568;6.998;2023-06-24T08:23:08;17.80;;;13.95;;
1885;SDS011;943;51.568;6.998;2023-06-24T08:27:37;18.45;;;14.43;;
1885;SDS011;943;51.568;6.998;2023-06-24T08:32:10;18.10;;;14.80;;
1885;SDS011;943;51.568;6.998;2023-06-24T08:36:41;16.97;;;13.23;;
1885;SDS011;943;51.568;6.998;2023-06-24T08:41:13;14.70;;;10.53;;
1885;SDS011;943;51.568;6.998;2023-06-24T08:45:43;14.00;;;12.50;;
1885;SDS011;943;51.568;6.998;2023-06-24T08:50:15;14.23;;;12.40;;
1885;SDS011;943;51.568;6.998;2023-06-24T08:54:50;12.00;;;10.70;;
1885;SDS011;943;51.568;6.998;2023-06-24T08:59:20;11.63;;;9.40;;
1885;SDS011;943;51.568;6.998;2023-06-24T09:03:51;12.55;;;11.10;;
1885;SDS011;943;51.568;6.998;2023-06-24T09:08:21;19.00;;;16.10;;
1885;SDS011;943;51.568;6.998;2023-06-24T09:13:02;13.70;;;12.30;;
1885;SDS011;943;51.568;6.998;2023-06-24T09:17:33;15.35;;;10.20;;
1885;SDS011;943;51.568;6.998;2023-06-24T09:22:13;8.18;;;7.38;;
1885;SDS011;943;51.568;6.998;2023-06-24T09:26:43;9.55;;;8.20;;
1885;SDS011;943;51.568;6.998;2023-06-24T09:31:13;8.65;;;7.03;;
1885;SDS011;943;51.568;6.998;2023-06-24T09:35:43;8.55;;;5.57;;
1885;SDS011;943;51.568;6.998;2023-06-24T09:40:13;7.47;;;5.65;;
1885;SDS011;943;51.568;6.998;2023-06-24T09:44:43;7.95;;;4.57;;
1885;SDS011;943;51.568;6.998;2023-06-24T09:49:13;6.32;;;4.20;;
1885;SDS011;943;51.568;6.998;2023-06-24T09:53:43;5.32;;;4.57;;
1885;SDS011;943;51.568;6.998;2023-06-24T09:58:14;5.20;;;4.30;;
1885;SDS011;943;51.568;6.998;2023-06-24T10:02:49;8.23;;;5.37;;
1885;SDS011;943;51.568;6.998;2023-06-24T10:07:23;5.57;;;4.37;;
1885;SDS011;943;51.568;6.998;2023-06-24T10:11:52;8.53;;;4.20;;
1885;SDS011;943;51.568;6.998;2023-06-24T10:16:23;7.80;;;5.10;;
1885;SDS011;943;51.568;6.998;2023-06-24T10:20:53;5.60;;;4.00;;
1885;SDS011;943;51.568;6.998;2023-06-24T10:25:35;5.53;;;4.70;;
1885;SDS011;943;51.568;6.998;2023-06-24T10:30:06;6.23;;;4.30;;
1885;SDS011;943;51.568;6.998;2023-06-24T10:39:10;4.77;;;3.60;;
1885;SDS011;943;51.568;6.998;2023-06-24T10:44:15;5.90;;;4.60;;
1885;SDS011;943;51.568;6.998;2023-06-24T10:48:47;4.20;;;3.20;;
1885;SDS011;943;51.568;6.998;2023-06-24T10:53:17;8.77;;;3.30;;
1885;SDS011;943;51.568;6.998;2023-06-24T10:57:47;5.30;;;3.93;;
1885;SDS011;943;51.568;6.998;2023-06-24T11:02:18;5.27;;;3.30;;
1885;SDS011;943;51.568;6.998;2023-06-24T11:06:58;5.20;;;2.90;;
1885;SDS011;943;51.568;6.998;2023-06-24T11:11:29;4.60;;;3.50;;
1885;SDS011;943;51.568;6.998;2023-06-24T11:16:00;5.30;;;4.53;;
1885;SDS011;943;51.568;6.998;2023-06-24T11:20:31;3.97;;;2.73;;
1885;SDS011;943;51.568;6.998;2023-06-24T11:25:14;3.97;;;3.30;;
1885;SDS011;943;51.568;6.998;2023-06-24T11:29:44;6.67;;;3.27;;
1885;SDS011;943;51.568;6.998;2023-06-24T11:34:14;4.50;;;3.10;;
1885;SDS011;943;51.568;6.998;2023-06-24T11:38:47;3.47;;;2.50;;
1885;SDS011;943;51.568;6.998;2023-06-24T11:43:17;4.10;;;2.73;;
1885;SDS011;943;51.568;6.998;2023-06-24T11:47:47;5.33;;;2.93;;
1885;SDS011;943;51.568;6.998;2023-06-24T11:52:17;4.27;;;3.10;;
1885;SDS011;943;51.568;6.998;2023-06-24T11:56:51;4.80;;;3.40;;
1885;SDS011;943;51.568;6.998;2023-06-24T12:01:29;5.63;;;3.27;;
1885;SDS011;943;51.568;6.998;2023-06-24T12:06:00;4.83;;;3.20;;
1885;SDS011;943;51.568;6.998;2023-06-24T12:10:30;5.50;;;3.93;;
1885;SDS011;943;51.568;6.998;2023-06-24T12:15:01;7.30;;;3.80;;
1885;SDS011;943;51.568;6.998;2023-06-24T12:19:31;3.90;;;3.10;;
1885;SDS011;943;51.568;6.998;2023-06-24T12:24:01;4.50;;;3.00;;
1885;SDS011;943;51.568;6.998;2023-06-24T12:28:31;4.97;;;3.23;;
1885;SDS011;943;51.568;6.998;2023-06-24T12:33:02;6.63;;;3.63;;
1885;SDS011;943;51.568;6.998;2023-06-24T12:37:31;6.10;;;3.67;;
1885;SDS011;943;51.568;6.998;2023-06-24T12:42:01;6.53;;;3.57;;
1885;SDS011;943;51.568;6.998;2023-06-24T12:46:31;4.50;;;3.60;;
1885;SDS011;943;51.568;6.998;2023-06-24T12:51:00;7.73;;;4.50;;
1885;SDS011;943;51.568;6.998;2023-06-24T12:55:30;5.13;;;3.83;;
1885;SDS011;943;51.568;6.998;2023-06-24T13:00:00;7.60;;;4.07;;
1885;SDS011;943;51.568;6.998;2023-06-24T13:04:30;6.37;;;3.50;;
1885;SDS011;943;51.568;6.998;2023-06-24T13:09:01;7.60;;;3.83;;
1885;SDS011;943;51.568;6.998;2023-06-24T13:13:32;6.47;;;4.37;;
1885;SDS011;943;51.568;6.998;2023-06-24T13:18:03;5.97;;;3.33;;
1885;SDS011;943;51.568;6.998;2023-06-24T13:22:33;4.97;;;3.93;;
1885;SDS011;943;51.568;6.998;2023-06-24T13:27:04;6.33;;;3.60;;
1885;SDS011;943;51.568;6.998;2023-06-24T13:31:35;4.50;;;3.30;;
1885;SDS011;943;51.568;6.998;2023-06-24T13:36:05;6.10;;;3.43;;
1885;SDS011;943;51.568;6.998;2023-06-24T13:40:42;5.60;;;3.43;;
1885;SDS011;943;51.568;6.998;2023-06-24T13:45:12;6.13;;;4.00;;
1885;SDS011;943;51.568;6.998;2023-06-24T13:49:42;8.50;;;3.63;;
1885;SDS011;943;51.568;6.998;2023-06-24T13:54:12;5.40;;;3.40;;
1885;SDS011;943;51.568;6.998;2023-06-24T13:58:41;6.27;;;3.20;;
1885;SDS011;943;51.568;6.998;2023-06-24T14:03:12;3.70;;;2.80;;
1885;SDS011;943;51.568;6.998;2023-06-24T14:07:42;5.70;;;3.40;;
1885;SDS011;943;51.568;6.998;2023-06-24T14:12:12;5.23;;;3.40;;
1885;SDS011;943;51.568;6.998;2023-06-24T14:16:42;4.00;;;3.07;;
1885;SDS011;943;51.568;6.998;2023-06-24T14:21:13;4.90;;;3.50;;
1885;SDS011;943;51.568;6.998;2023-06-24T14:25:45;5.00;;;3.60;;
1885;SDS011;943;51.568;6.998;2023-06-24T14:30:15;4.40;;;3.30;;
1885;SDS011;943;51.568;6.998;2023-06-24T14:34:45;3.70;;;2.70;;
1885;SDS011;943;51.568;6.998;2023-06-24T14:39:15;4.70;;;3.50;;
1885;SDS011;943;51.568;6.998;2023-06-24T14:43:45;4.93;;;3.60;;
1885;SDS011;943;51.568;6.998;2023-06-24T14:48:14;4.30;;;3.60;;
1885;SDS011;943;51.568;6.998;2023-06-24T14:52:45;4.70;;;2.97;;
1885;SDS011;943;51.568;6.998;2023-06-24T14:57:15;4.50;;;3.27;;
1885;SDS011;943;51.568;6.998;2023-06-24T15:01:44;5.70;;;3.20;;
1885;SDS011;943;51.568;6.998;2023-06-24T15:06:14;4.63;;;2.63;;
1885;SDS011;943;51.568;6.998;2023-06-24T15:10:44;4.67;;;3.40;;
1885;SDS011;943;51.568;6.998;2023-06-24T15:15:14;4.87;;;3.13;;
1885;SDS011;943;51.568;6.998;2023-06-24T15:19:44;5.50;;;3.30;;
1885;SDS011;943;51.568;6.998;2023-06-24T15:24:14;4.77;;;2.77;;
1885;SDS011;943;51.568;6.998;2023-06-24T15:28:45;4.77;;;2.80;;
1885;SDS011;943;51.568;6.998;2023-06-24T15:33:14;5.03;;;2.83;;
1885;SDS011;943;51.568;6.998;2023-06-24T15:37:45;8.50;;;3.13;;
1885;SDS011;943;51.568;6.998;2023-06-24T15:42:15;5.50;;;3.50;;
1885;SDS011;943;51.568;6.998;2023-06-24T15:46:47;4.17;;;3.27;;
1885;SDS011;943;51.568;6.998;2023-06-24T15:51:16;3.53;;;2.60;;
1885;SDS011;943;51.568;6.998;2023-06-24T15:55:47;8.50;;;3.37;;
1885;SDS011;943;51.568;6.998;2023-06-24T16:00:17;4.70;;;3.00;;
1885;SDS011;943;51.568;6.998;2023-06-24T16:04:49;6.13;;;3.13;;
1885;SDS011;943;51.568;6.998;2023-06-24T16:09:19;5.43;;;2.70;;
1885;SDS011;943;51.568;6.998;2023-06-24T16:13:50;4.03;;;2.73;;
1885;SDS011;943;51.568;6.998;2023-06-24T16:18:20;4.63;;;3.13;;
1885;SDS011;943;51.568;6.998;2023-06-24T16:22:49;3.60;;;2.80;;
1885;SDS011;943;51.568;6.998;2023-06-24T16:27:19;4.57;;;3.27;;
1885;SDS011;943;51.568;6.998;2023-06-24T16:31:49;4.53;;;2.63;;
1885;SDS011;943;51.568;6.998;2023-06-24T16:36:19;5.97;;;3.60;;
1885;SDS011;943;51.568;6.998;2023-06-24T16:40:48;4.53;;;2.73;;
1885;SDS011;943;51.568;6.998;2023-06-24T16:45:18;3.97;;;2.73;;
1885;SDS011;943;51.568;6.998;2023-06-24T16:49:47;4.93;;;3.63;;
1885;SDS011;943;51.568;6.998;2023-06-24T16:54:17;3.67;;;2.93;;
1885;SDS011;943;51.568;6.998;2023-06-24T16:58:47;5.30;;;3.40;;
1885;SDS011;943;51.568;6.998;2023-06-24T17:03:16;5.07;;;3.30;;
1885;SDS011;943;51.568;6.998;2023-06-24T17:07:46;4.53;;;3.10;;
1885;SDS011;943;51.568;6.998;2023-06-24T17:12:15;4.20;;;2.80;;
1885;SDS011;943;51.568;6.998;2023-06-24T17:16:45;3.40;;;2.67;;
1885;SDS011;943;51.568;6.998;2023-06-24T17:21:15;3.50;;;2.27;;
1885;SDS011;943;51.568;6.998;2023-06-24T17:25:44;3.80;;;3.37;;
1885;SDS011;943;51.568;6.998;2023-06-24T17:30:14;3.87;;;2.90;;
1885;SDS011;943;51.568;6.998;2023-06-24T17:34:46;6.40;;;2.90;;
1885;SDS011;943;51.568;6.998;2023-06-24T17:39:16;5.40;;;2.90;;
1885;SDS011;943;51.568;6.998;2023-06-24T17:43:49;5.60;;;3.17;;
1885;SDS011;943;51.568;6.998;2023-06-24T17:48:19;4.70;;;3.30;;
1885;SDS011;943;51.568;6.998;2023-06-24T17:52:50;4.67;;;3.60;;
1885;SDS011;943;51.568;6.998;2023-06-24T17:57:20;3.47;;;2.50;;
1885;SDS011;943;51.568;6.998;2023-06-24T18:01:49;4.93;;;3.00;;
1885;SDS011;943;51.568;6.998;2023-06-24T18:06:19;4.27;;;2.50;;
1885;SDS011;943;51.568;6.998;2023-06-24T18:10:49;3.57;;;2.00;;
1885;SDS011;943;51.568;6.998;2023-06-24T18:15:18;5.50;;;2.73;;
1885;SDS011;943;51.568;6.998;2023-06-24T18:19:48;4.67;;;2.90;;
1885;SDS011;943;51.568;6.998;2023-06-24T18:24:17;3.80;;;2.60;;
1885;SDS011;943;51.568;6.998;2023-06-24T18:28:49;3.90;;;3.00;;
1885;SDS011;943;51.568;6.998;2023-06-24T18:33:20;4.40;;;2.53;;
1885;SDS011;943;51.568;6.998;2023-06-24T18:37:50;4.27;;;2.70;;
1885;SDS011;943;51.568;6.998;2023-06-24T18:42:21;3.30;;;2.63;;
1885;SDS011;943;51.568;6.998;2023-06-24T18:46:50;5.07;;;3.00;;
1885;SDS011;943;51.568;6.998;2023-06-24T18:51:21;3.87;;;2.80;;
1885;SDS011;943;51.568;6.998;2023-06-24T18:55:51;4.93;;;2.77;;
1885;SDS011;943;51.568;6.998;2023-06-24T19:00:21;4.30;;;3.00;;
1885;SDS011;943;51.568;6.998;2023-06-24T19:04:51;4.20;;;3.00;;
1885;SDS011;943;51.568;6.998;2023-06-24T19:09:20;4.63;;;3.30;;
1885;SDS011;943;51.568;6.998;2023-06-24T19:13:50;5.60;;;3.17;;
1885;SDS011;943;51.568;6.998;2023-06-24T19:18:19;5.40;;;3.07;;
1885;SDS011;943;51.568;6.998;2023-06-24T19:22:49;7.57;;;3.20;;
1885;SDS011;943;51.568;6.998;2023-06-24T19:27:19;5.50;;;3.30;;
1885;SDS011;943;51.568;6.998;2023-06-24T19:31:49;4.73;;;3.10;;
1885;SDS011;943;51.568;6.998;2023-06-24T19:36:19;7.97;;;4.07;;
1885;SDS011;943;51.568;6.998;2023-06-24T19:40:49;7.17;;;4.20;;
1885;SDS011;943;51.568;6.998;2023-06-24T19:45:19;8.93;;;3.93;;
1885;SDS011;943;51.568;6.998;2023-06-24T19:49:51;7.03;;;3.80;;
1885;SDS011;943;51.568;6.998;2023-06-24T19:54:22;6.77;;;4.60;;
1885;SDS011;943;51.568;6.998;2023-06-24T19:58:52;6.30;;;4.43;;
1885;SDS011;943;51.568;6.998;2023-06-24T20:03:22;5.50;;;4.10;;
1885;SDS011;943;51.568;6.998;2023-06-24T20:07:51;6.63;;;4.30;;
1885;SDS011;943;51.568;6.998;2023-06-24T20:12:21;5.70;;;4.00;;
1885;SDS011;943;51.568;6.998;2023-06-24T20:16:50;5.13;;;3.67;;
1885;SDS011;943;51.568;6.998;2023-06-24T20:21:20;7.23;;;4.60;;
1885;SDS011;943;51.568;6.998;2023-06-24T20:25:49;5.87;;;4.53;;
1885;SDS011;943;51.568;6.998;2023-06-24T20:30:20;6.63;;;4.20;;
1885;SDS011;943;51.568;6.998;2023-06-24T20:34:49;7.30;;;4.10;;
1885;SDS011;943;51.568;6.998;2023-06-24T20:39:19;6.73;;;4.43;;
1885;SDS011;943;51.568;6.998;2023-06-24T20:43:49;8.10;;;4.27;;
1885;SDS011;943;51.568;6.998;2023-06-24T20:48:19;6.87;;;4.57;;
1885;SDS011;943;51.568;6.998;2023-06-24T20:52:50;6.03;;;4.83;;
1885;SDS011;943;51.568;6.998;2023-06-24T20:57:19;15.90;;;9.57;;
1885;SDS011;943;51.568;6.998;2023-06-24T21:01:49;9.10;;;5.80;;
1885;SDS011;943;51.568;6.998;2023-06-24T21:06:18;6.10;;;4.83;;
1885;SDS011;943;51.568;6.998;2023-06-24T21:10:48;8.77;;;5.20;;
1885;SDS011;943;51.568;6.998;2023-06-24T21:15:24;8.73;;;5.60;;
1885;SDS011;943;51.568;6.998;2023-06-24T21:19:55;6.23;;;4.97;;
1885;SDS011;943;51.568;6.998;2023-06-24T21:24:24;8.87;;;4.23;;
1885;SDS011;943;51.568;6.998;2023-06-24T21:28:54;5.10;;;3.53;;
1885;SDS011;943;51.568;6.998;2023-06-24T21:33:24;5.50;;;4.27;;
1885;SDS011;943;51.568;6.998;2023-06-24T21:37:54;5.40;;;4.10;;
1885;SDS011;943;51.568;6.998;2023-06-24T21:42:23;8.67;;;4.57;;
1885;SDS011;943;51.568;6.998;2023-06-24T21:46:53;5.03;;;4.10;;
1885;SDS011;943;51.568;6.998;2023-06-24T21:51:24;6.10;;;4.37;;
1885;SDS011;943;51.568;6.998;2023-06-24T21:55:59;8.27;;;4.67;;
1885;SDS011;943;51.568;6.998;2023-06-24T22:00:30;7.03;;;5.00;;
1885;SDS011;943;51.568;6.998;2023-06-24T22:04:59;6.47;;;4.67;;
1885;SDS011;943;51.568;6.998;2023-06-24T22:09:31;5.10;;;4.40;;
1885;SDS011;943;51.568;6.998;2023-06-24T22:14:04;6.23;;;4.43;;
1885;SDS011;943;51.568;6.998;2023-06-24T22:18:39;6.90;;;4.83;;
1885;SDS011;943;51.568;6.998;2023-06-24T22:23:11;6.07;;;4.90;;
1885;SDS011;943;51.568;6.998;2023-06-24T22:27:41;8.43;;;5.40;;
1885;SDS011;943;51.568;6.998;2023-06-24T22:32:14;7.03;;;4.60;;
1885;SDS011;943;51.568;6.998;2023-06-24T22:36:44;7.90;;;5.57;;
1885;SDS011;943;51.568;6.998;2023-06-24T22:41:14;6.43;;;5.40;;
1885;SDS011;943;51.568;6.998;2023-06-24T22:45:44;6.87;;;5.50;;
1885;SDS011;943;51.568;6.998;2023-06-24T22:50:14;7.67;;;5.60;;
1885;SDS011;943;51.568;6.998;2023-06-24T22:54:44;8.50;;;6.17;;
1885;SDS011;943;51.568;6.998;2023-06-24T22:59:14;9.37;;;6.30;;
1885;SDS011;943;51.568;6.998;2023-06-24T23:03:44;9.77;;;5.57;;
1885;SDS011;943;51.568;6.998;2023-06-24T23:08:15;6.97;;;5.50;;
1885;SDS011;943;51.568;6.998;2023-06-24T23:12:45;9.50;;;6.00;;
1885;SDS011;943;51.568;6.998;2023-06-24T23:17:17;8.33;;;5.40;;
1885;SDS011;943;51.568;6.998;2023-06-24T23:21:48;8.03;;;5.80;;
1885;SDS011;943;51.568;6.998;2023-06-24T23:26:19;8.37;;;6.07;;
1885;SDS011;943;51.568;6.998;2023-06-24T23:30:54;7.10;;;5.43;;
1885;SDS011;943;51.568;6.998;2023-06-24T23:35:28;8.83;;;5.73;;
1885;SDS011;943;51.568;6.998;2023-06-24T23:39:58;6.77;;;5.40;;
1885;SDS011;943;51.568;6.998;2023-06-24T23:44:31;7.53;;;5.50;;
1885;SDS011;943;51.568;6.998;2023-06-24T23:49:02;7.30;;;6.03;;
1885;SDS011;943;51.568;6.998;2023-06-24T23:53:32;9.27;;;6.00;;
1885;SDS011;943;51.568;6.998;2023-06-24T23:58:03;9.60;;;5.40;;
